createdAt,value
2017-07-01T00:01:49.970Z,13.30
2017-07-01T00:04:18.297Z,14.50
2017-07-01T00:06:45.791Z,13.73
2017-07-01T00:09:13.342Z,11.73
2017-07-01T00:11:40.828Z,12.23
2017-07-01T00:14:09.062Z,9.80
2017-07-01T00:16:36.549Z,9.97
2017-07-01T00:19:04.829Z,9.43
2017-07-01T00:21:33.090Z,11.10
2017-07-01T00:24:00.554Z,8.30
2017-07-01T00:26:28.818Z,10.63
2017-07-01T00:28:56.285Z,9.80
2017-07-01T00:31:24.558Z,11.87
2017-07-01T00:33:52.104Z,9.53
2017-07-01T00:36:19.570Z,9.83
2017-07-01T00:38:47.087Z,12.00
2017-07-01T00:41:14.579Z,12.37
2017-07-01T00:43:42.138Z,12.07
2017-07-01T00:46:09.602Z,10.37
2017-07-01T00:48:38.033Z,10.70
2017-07-01T00:51:05.621Z,18.93
2017-07-01T00:53:33.202Z,11.87
2017-07-01T00:56:01.442Z,11.77
2017-07-01T00:58:28.926Z,11.10
2017-07-01T01:00:56.399Z,16.13
2017-07-01T01:03:24.695Z,12.83
2017-07-01T01:05:52.228Z,14.97
2017-07-01T01:08:21.545Z,14.33
2017-07-01T01:10:49.069Z,12.30
2017-07-01T01:13:16.541Z,11.90
2017-07-01T01:15:44.779Z,13.50
2017-07-01T01:18:12.260Z,13.87
2017-07-01T01:20:39.730Z,12.13
2017-07-01T01:23:08.002Z,8.47
2017-07-01T01:25:36.297Z,9.73
2017-07-01T01:28:04.515Z,9.97
2017-07-01T01:30:32.002Z,7.00
2017-07-01T01:32:59.470Z,11.70
2017-07-01T01:35:27.736Z,5.50
2017-07-01T01:37:55.189Z,4.00
2017-07-01T01:40:22.745Z,3.90
2017-07-01T01:42:50.204Z,3.63
2017-07-01T01:45:17.658Z,5.00
2017-07-01T01:47:45.113Z,2.50
2017-07-01T01:50:12.588Z,3.13
2017-07-01T01:52:40.046Z,2.23
2017-07-01T01:55:08.297Z,2.50
2017-07-01T01:57:35.762Z,2.63
2017-07-01T02:00:03.221Z,2.37
2017-07-01T02:02:30.775Z,3.13
2017-07-01T02:04:58.238Z,3.93
2017-07-01T02:07:25.706Z,2.40
2017-07-01T02:09:54.986Z,1.60
2017-07-01T02:12:23.276Z,1.80
2017-07-01T02:15:02.290Z,2.40
2017-07-01T02:17:40.370Z,2.47
2017-07-01T02:20:19.810Z,2.47
2017-07-01T02:22:47.274Z,2.30
2017-07-01T02:25:34.349Z,2.47
2017-07-01T02:28:01.815Z,2.50
2017-07-01T02:30:29.269Z,1.90
2017-07-01T02:33:10.301Z,1.60
2017-07-01T02:35:40.225Z,1.67
2017-07-01T02:38:08.488Z,1.87
2017-07-01T02:40:36.040Z,3.20
2017-07-01T02:43:03.501Z,2.30
2017-07-01T02:45:48.860Z,1.70
2017-07-01T02:48:22.949Z,1.50
2017-07-01T02:50:56.032Z,1.13
2017-07-01T02:53:28.007Z,1.20
2017-07-01T02:56:19.048Z,1.40
2017-07-01T02:58:56.125Z,1.73
2017-07-01T03:01:23.581Z,1.80
2017-07-01T03:03:51.039Z,2.47
2017-07-01T03:06:18.498Z,2.20
2017-07-01T03:08:45.975Z,2.33
2017-07-01T03:11:14.186Z,1.67
2017-07-01T03:13:41.676Z,2.73
2017-07-01T03:16:09.144Z,3.20
2017-07-01T03:18:36.595Z,1.60
2017-07-01T03:21:04.168Z,1.70
2017-07-01T03:23:31.613Z,2.07
2017-07-01T03:26:04.194Z,2.03
2017-07-01T03:28:31.673Z,3.00
2017-07-01T03:30:59.894Z,3.00
2017-07-01T03:33:37.266Z,2.27
2017-07-01T03:36:09.591Z,1.67
2017-07-01T03:38:49.849Z,5.37
2017-07-01T03:41:44.840Z,2.67
2017-07-01T03:44:19.013Z,4.00
2017-07-01T03:46:48.498Z,4.17
2017-07-01T03:49:45.715Z,8.00
2017-07-01T03:52:13.280Z,4.30
2017-07-01T03:54:45.243Z,3.30
2017-07-01T03:57:13.522Z,3.93
2017-07-01T03:59:41.757Z,4.93
2017-07-01T04:02:09.243Z,5.07
2017-07-01T04:04:37.438Z,5.07
2017-07-01T04:07:04.918Z,5.37
2017-07-01T04:09:32.387Z,6.80
2017-07-01T04:11:59.842Z,7.07
2017-07-01T04:14:27.297Z,7.23
2017-07-01T04:16:54.798Z,8.43
2017-07-01T04:19:51.965Z,8.13
2017-07-01T04:22:23.110Z,4.60
2017-07-01T04:24:51.392Z,3.37
2017-07-01T04:27:20.418Z,6.50
2017-07-01T04:29:47.913Z,6.50
2017-07-01T04:32:15.381Z,5.80
2017-07-01T04:34:42.871Z,7.90
2017-07-01T04:37:10.385Z,5.10
2017-07-01T04:39:37.833Z,3.70
2017-07-01T04:42:25.970Z,5.60
2017-07-01T04:44:55.181Z,3.73
2017-07-01T04:47:22.699Z,8.53
2017-07-01T04:49:50.193Z,4.40
2017-07-01T04:52:20.479Z,6.50
2017-07-01T04:54:54.644Z,2.63
2017-07-01T04:57:41.958Z,3.43
2017-07-01T05:00:15.383Z,2.30
2017-07-01T05:02:42.859Z,6.80
2017-07-01T05:05:10.323Z,5.13
2017-07-01T05:07:44.146Z,6.63
2017-07-01T05:10:16.152Z,7.20
2017-07-01T05:12:47.440Z,5.37
2017-07-01T05:15:14.933Z,4.80
2017-07-01T05:17:42.382Z,3.20
2017-07-01T05:20:12.922Z,5.10
2017-07-01T05:22:59.865Z,6.10
2017-07-01T05:25:39.247Z,3.03
2017-07-01T05:28:06.771Z,4.70
2017-07-01T05:30:39.713Z,6.53
2017-07-01T05:33:23.762Z,4.70
2017-07-01T05:36:23.783Z,3.80
2017-07-01T05:38:55.692Z,8.90
2017-07-01T05:41:27.710Z,7.10
2017-07-01T05:43:57.922Z,7.30
2017-07-01T05:46:38.858Z,7.80
2017-07-01T05:49:10.969Z,12.83
2017-07-01T05:51:40.983Z,16.60
2017-07-01T05:54:08.547Z,9.00
2017-07-01T05:56:36.005Z,14.10
2017-07-01T05:59:06.139Z,8.00
2017-07-01T06:01:34.400Z,10.80
2017-07-01T06:04:02.797Z,12.90
2017-07-01T06:06:30.258Z,9.20
2017-07-01T06:08:57.765Z,12.90
2017-07-01T06:11:25.238Z,11.70
2017-07-01T06:13:58.489Z,8.77
2017-07-01T06:16:36.655Z,16.80
2017-07-01T06:19:09.737Z,14.80
2017-07-01T06:21:42.729Z,12.57
2017-07-01T06:24:20.830Z,16.80
2017-07-01T06:27:11.663Z,13.40
2017-07-01T06:29:45.058Z,11.80
2017-07-01T06:32:32.939Z,14.77
2017-07-01T06:35:27.938Z,16.23
2017-07-01T06:38:16.167Z,11.07
2017-07-01T06:41:06.480Z,18.87
2017-07-01T06:43:33.946Z,21.87
2017-07-01T06:46:13.193Z,15.60
2017-07-01T06:48:41.811Z,12.60
2017-07-01T06:51:09.267Z,14.70
2017-07-01T06:53:36.779Z,17.90
2017-07-01T06:56:04.235Z,19.23
2017-07-01T06:58:31.736Z,18.30
2017-07-01T07:00:59.216Z,15.27
2017-07-01T07:03:26.714Z,17.50
2017-07-01T07:05:54.356Z,17.63
2017-07-01T07:08:21.861Z,14.50
2017-07-01T07:10:49.311Z,18.97
2017-07-01T07:13:16.862Z,11.93
2017-07-01T07:15:44.376Z,24.53
2017-07-01T07:18:11.838Z,14.70
2017-07-01T07:20:40.499Z,16.00
2017-07-01T07:23:07.951Z,24.00
2017-07-01T07:25:35.459Z,26.30
2017-07-01T07:28:02.933Z,15.50
2017-07-01T07:30:31.182Z,26.93
2017-07-01T07:32:58.645Z,17.50
2017-07-01T07:35:26.166Z,21.00
2017-07-01T07:37:53.662Z,32.87
2017-07-01T07:40:21.214Z,22.83
2017-07-01T07:42:49.485Z,27.67
2017-07-01T07:45:17.003Z,17.23
2017-07-01T07:47:44.504Z,20.83
2017-07-01T07:50:11.976Z,23.50
2017-07-01T07:52:40.248Z,79.13
2017-07-01T07:55:08.504Z,62.13
2017-07-01T07:57:35.976Z,75.73
2017-07-01T08:00:03.585Z,49.13
2017-07-01T08:02:31.056Z,43.30
2017-07-01T08:04:58.558Z,31.80
2017-07-01T08:07:26.786Z,26.60
2017-07-01T08:09:54.260Z,30.70
2017-07-01T08:12:21.756Z,22.80
2017-07-01T08:14:51.080Z,24.43
2017-07-01T08:17:18.558Z,21.00
2017-07-01T08:19:46.871Z,26.17
2017-07-01T08:22:14.342Z,22.60
2017-07-01T08:24:42.625Z,32.03
2017-07-01T08:27:11.003Z,25.97
2017-07-01T08:29:39.276Z,24.00
2017-07-01T08:32:07.529Z,14.97
2017-07-01T08:34:35.178Z,21.77
2017-07-01T08:37:02.632Z,17.60
2017-07-01T08:39:30.202Z,18.40
2017-07-01T08:41:57.678Z,11.50
2017-07-01T08:44:25.151Z,19.13
2017-07-01T08:46:52.645Z,18.40
2017-07-01T08:49:20.191Z,26.13
2017-07-01T08:51:47.669Z,21.07
2017-07-01T08:54:15.141Z,18.53
2017-07-01T08:56:42.716Z,19.07
2017-07-01T08:59:10.182Z,28.40
2017-07-01T09:01:38.425Z,17.70
2017-07-01T09:04:05.994Z,11.53
2017-07-01T09:06:33.563Z,12.93
2017-07-01T09:09:01.131Z,23.10
2017-07-01T09:11:29.449Z,16.90
2017-07-01T09:13:56.963Z,11.93
2017-07-01T09:16:25.187Z,16.13
2017-07-01T09:18:52.669Z,16.43
2017-07-01T09:21:20.137Z,8.70
2017-07-01T09:23:47.616Z,13.03
2017-07-01T09:26:15.924Z,19.77
2017-07-01T09:28:43.425Z,15.37
2017-07-01T09:31:10.889Z,18.50
2017-07-01T09:33:39.137Z,24.30
2017-07-01T09:36:06.615Z,26.87
2017-07-01T09:38:34.091Z,19.70
2017-07-01T09:41:02.330Z,21.20
2017-07-01T09:43:29.802Z,15.07
2017-07-01T09:45:57.266Z,12.43
2017-07-01T09:48:24.813Z,6.00
2017-07-01T09:50:52.284Z,9.47
2017-07-01T09:53:19.759Z,12.53
2017-07-01T09:55:48.039Z,12.50
2017-07-01T09:58:15.521Z,14.00
2017-07-01T10:00:43.022Z,15.73
2017-07-01T10:03:10.498Z,11.83
2017-07-01T10:05:38.769Z,6.60
2017-07-01T10:08:06.238Z,7.70
2017-07-01T10:10:33.727Z,6.97
2017-07-01T10:13:01.196Z,12.83
2017-07-01T10:15:28.660Z,10.67
2017-07-01T10:17:56.241Z,8.90
2017-07-01T10:20:23.841Z,6.73
2017-07-01T10:22:51.552Z,7.50
2017-07-01T10:25:19.088Z,8.60
2017-07-01T10:27:46.728Z,9.07
2017-07-01T10:30:14.238Z,4.90
2017-07-01T10:32:42.053Z,14.17
2017-07-01T10:35:09.661Z,5.83
2017-07-01T10:37:37.325Z,9.33
2017-07-01T10:40:05.074Z,6.93
2017-07-01T10:42:32.543Z,6.83
2017-07-01T10:45:00.005Z,8.83
2017-07-01T10:47:27.474Z,8.63
2017-07-01T10:49:54.946Z,11.53
2017-07-01T10:52:22.421Z,11.07
2017-07-01T10:54:49.896Z,10.40
2017-07-01T10:57:17.379Z,15.83
2017-07-01T10:59:44.858Z,20.07
2017-07-01T11:02:12.411Z,11.20
2017-07-01T11:04:39.875Z,13.93
2017-07-01T11:07:07.405Z,9.50
2017-07-01T11:09:34.858Z,11.87
2017-07-01T11:12:02.344Z,8.40
2017-07-01T11:14:29.810Z,6.93
2017-07-01T11:16:57.306Z,7.30
2017-07-01T11:19:24.839Z,23.93
2017-07-01T11:21:52.346Z,14.10
2017-07-01T11:24:19.810Z,11.20
2017-07-01T11:26:47.282Z,8.97
2017-07-01T11:29:14.741Z,18.50
2017-07-01T11:31:42.222Z,10.83
2017-07-01T11:34:09.718Z,14.57
2017-07-01T11:36:37.195Z,16.40
2017-07-01T11:39:04.653Z,7.60
2017-07-01T11:41:32.132Z,16.23
2017-07-01T11:44:00.358Z,11.23
2017-07-01T11:46:27.815Z,9.70
2017-07-01T11:48:55.313Z,6.00
2017-07-01T11:51:23.530Z,4.50
2017-07-01T11:53:50.994Z,11.77
2017-07-01T11:56:18.486Z,9.90
2017-07-01T11:58:45.962Z,6.23
2017-07-01T12:01:13.405Z,11.43
2017-07-01T12:03:40.891Z,9.47
2017-07-01T12:06:08.347Z,5.77
2017-07-01T12:08:35.815Z,9.03
2017-07-01T12:11:03.282Z,8.53
2017-07-01T12:13:30.738Z,8.70
2017-07-01T12:15:58.198Z,8.63
2017-07-01T12:18:25.659Z,10.47
2017-07-01T12:20:53.150Z,4.50
2017-07-01T12:23:20.646Z,12.37
2017-07-01T12:25:48.128Z,14.43
2017-07-01T12:28:15.623Z,16.00
2017-07-01T12:30:43.093Z,12.50
2017-07-01T12:33:10.615Z,9.80
2017-07-01T12:35:38.074Z,8.63
2017-07-01T12:38:05.526Z,8.90
2017-07-01T12:40:33.003Z,8.90
2017-07-01T12:43:00.452Z,8.57
2017-07-01T12:45:27.946Z,9.00
2017-07-01T12:47:55.411Z,8.20
2017-07-01T12:50:22.866Z,10.73
2017-07-01T12:52:50.411Z,13.00
2017-07-01T12:55:17.877Z,14.43
2017-07-01T12:57:45.421Z,10.10
2017-07-01T13:00:12.903Z,7.03
2017-07-01T13:02:40.403Z,10.80
2017-07-01T13:05:07.863Z,8.83
2017-07-01T13:07:35.318Z,8.43
2017-07-01T13:10:02.776Z,8.67
2017-07-01T13:12:30.238Z,15.23
2017-07-01T13:14:59.207Z,19.83
2017-07-01T13:17:26.676Z,19.03
2017-07-01T13:19:54.139Z,12.30
2017-07-01T13:22:21.626Z,20.43
2017-07-01T13:24:49.117Z,11.23
2017-07-01T13:27:16.583Z,18.13
2017-07-01T13:29:44.086Z,18.03
2017-07-01T13:32:11.536Z,13.33
2017-07-01T13:34:38.987Z,16.53
2017-07-01T13:37:06.446Z,25.30
2017-07-01T13:39:33.906Z,30.90
2017-07-01T13:42:01.378Z,23.17
2017-07-01T13:44:28.845Z,24.57
2017-07-01T13:46:57.071Z,18.20
2017-07-01T13:49:24.525Z,31.40
2017-07-01T13:51:51.990Z,24.77
2017-07-01T13:54:19.452Z,30.13
2017-07-01T13:56:46.929Z,21.73
2017-07-01T13:59:14.388Z,27.23
2017-07-01T14:01:41.879Z,30.40
2017-07-01T14:04:09.399Z,25.10
2017-07-01T14:06:36.852Z,26.53
2017-07-01T14:09:04.307Z,18.83
2017-07-01T14:11:31.767Z,23.23
2017-07-01T14:13:59.237Z,23.17
2017-07-01T14:16:26.710Z,27.40
2017-07-01T14:18:54.476Z,23.23
2017-07-01T14:21:21.982Z,37.73
2017-07-01T14:23:49.462Z,22.87
2017-07-01T14:26:16.944Z,26.30
2017-07-01T14:28:44.658Z,19.37
2017-07-01T14:31:12.114Z,18.50
2017-07-01T14:33:39.575Z,22.80
2017-07-01T14:36:07.042Z,22.93
2017-07-01T14:38:34.499Z,26.10
2017-07-01T14:41:01.950Z,21.17
2017-07-01T14:43:29.414Z,19.60
2017-07-01T14:45:56.874Z,30.10
2017-07-01T14:48:24.327Z,19.33
2017-07-01T14:50:51.786Z,14.33
2017-07-01T14:53:19.237Z,24.50
2017-07-01T14:55:46.774Z,28.03
2017-07-01T14:58:14.235Z,23.17
2017-07-01T15:00:41.694Z,20.10
2017-07-01T15:03:09.154Z,18.77
2017-07-01T15:05:36.681Z,28.33
2017-07-01T15:08:04.150Z,20.63
2017-07-01T15:10:31.650Z,23.63
2017-07-01T15:12:59.099Z,24.03
2017-07-01T15:15:26.581Z,25.10
2017-07-01T15:17:54.810Z,21.63
2017-07-01T15:20:22.271Z,24.23
2017-07-01T15:22:49.729Z,21.93
2017-07-01T15:25:17.184Z,17.13
2017-07-01T15:27:44.638Z,24.53
2017-07-01T15:30:12.318Z,22.37
2017-07-01T15:32:40.549Z,24.17
2017-07-01T15:35:08.014Z,20.00
2017-07-01T15:37:35.490Z,30.07
2017-07-01T15:40:02.965Z,36.43
2017-07-01T15:42:31.198Z,30.87
2017-07-01T15:44:58.669Z,29.07
2017-07-01T15:47:26.130Z,31.70
2017-07-01T15:49:53.603Z,31.20
2017-07-01T15:52:21.074Z,29.90
2017-07-01T15:54:48.530Z,26.03
2017-07-01T15:57:15.990Z,24.50
2017-07-01T15:59:43.489Z,28.10
2017-07-01T16:02:10.973Z,20.10
2017-07-01T16:04:38.438Z,26.23
2017-07-01T16:07:05.910Z,28.40
2017-07-01T16:09:33.365Z,27.03
2017-07-01T16:12:00.827Z,23.47
2017-07-01T16:14:28.290Z,30.57
2017-07-01T16:16:55.754Z,24.90
2017-07-01T16:19:23.207Z,30.77
2017-07-01T16:21:50.681Z,30.27
2017-07-01T16:24:18.131Z,28.37
2017-07-01T16:26:45.582Z,30.00
2017-07-01T16:29:13.052Z,26.57
2017-07-01T16:31:40.527Z,23.90
2017-07-01T16:34:07.983Z,31.63
2017-07-01T16:36:35.480Z,22.33
2017-07-01T16:39:02.944Z,23.50
2017-07-01T16:41:30.398Z,27.83
2017-07-01T16:43:57.875Z,21.40
2017-07-01T16:46:25.340Z,22.73
2017-07-01T16:48:52.878Z,29.00
2017-07-01T16:51:21.143Z,19.03
2017-07-01T16:53:48.613Z,23.90
2017-07-01T16:56:16.879Z,21.60
2017-07-01T16:58:44.350Z,29.10
2017-07-01T17:01:12.617Z,17.40
2017-07-01T17:03:40.890Z,21.73
2017-07-01T17:06:08.377Z,27.23
2017-07-01T17:08:35.851Z,22.47
2017-07-01T17:11:03.316Z,21.47
2017-07-01T17:13:30.778Z,20.80
2017-07-01T17:15:58.237Z,27.60
2017-07-01T17:18:25.723Z,26.80
2017-07-01T17:20:53.186Z,33.10
2017-07-01T17:23:20.655Z,33.67
2017-07-01T17:25:48.892Z,44.40
2017-07-01T17:28:16.359Z,38.80
2017-07-01T17:30:43.851Z,38.07
2017-07-01T17:33:12.244Z,33.23
2017-07-01T17:35:39.698Z,33.73
2017-07-01T17:38:07.153Z,33.27
2017-07-01T17:40:34.625Z,37.73
2017-07-01T17:43:02.090Z,28.57
2017-07-01T17:45:29.584Z,22.27
2017-07-01T17:47:57.114Z,30.70
2017-07-01T17:50:24.583Z,37.23
2017-07-01T17:52:52.087Z,32.30
2017-07-01T17:55:19.541Z,31.07
2017-07-01T17:57:47.010Z,34.17
2017-07-01T18:00:14.478Z,32.73
2017-07-01T18:02:41.961Z,26.10
2017-07-01T18:05:09.431Z,35.30
2017-07-01T18:07:36.903Z,29.70
2017-07-01T18:10:05.353Z,39.33
2017-07-01T18:12:32.960Z,22.70
2017-07-01T18:15:01.209Z,39.43
2017-07-01T18:17:28.678Z,30.27
2017-07-01T18:19:56.921Z,29.43
2017-07-01T18:22:25.848Z,24.40
2017-07-01T18:24:54.090Z,26.37
2017-07-01T18:27:22.682Z,22.37
2017-07-01T18:29:50.157Z,29.10
2017-07-01T18:32:19.960Z,28.20
2017-07-01T18:34:47.476Z,29.30
2017-07-01T18:37:14.942Z,27.70
2017-07-01T18:39:43.418Z,29.87
2017-07-01T18:42:11.573Z,28.20
2017-07-01T18:44:39.070Z,19.90
2017-07-01T18:47:06.541Z,29.83
2017-07-01T18:49:34.005Z,29.63
2017-07-01T18:52:02.244Z,21.17
2017-07-01T18:54:29.713Z,28.87
2017-07-01T18:56:57.178Z,28.60
2017-07-01T18:59:24.654Z,27.57
2017-07-01T19:01:52.130Z,22.77
2017-07-01T19:04:19.606Z,22.43
2017-07-01T19:06:47.074Z,32.03
2017-07-01T19:09:14.549Z,23.90
2017-07-01T19:11:42.009Z,27.77
2017-07-01T19:14:09.481Z,22.87
2017-07-01T19:16:36.947Z,23.37
2017-07-01T19:19:04.399Z,20.37
2017-07-01T19:21:32.668Z,24.57
2017-07-01T19:24:00.149Z,23.93
2017-07-01T19:26:28.384Z,25.00
2017-07-01T19:28:55.863Z,25.47
2017-07-01T19:31:23.327Z,25.47
2017-07-01T19:33:50.787Z,23.27
2017-07-01T19:36:19.037Z,15.93
2017-07-01T19:38:46.515Z,17.20
2017-07-01T19:41:14.731Z,22.03
2017-07-01T19:43:42.224Z,24.80
2017-07-01T19:46:09.698Z,12.77
2017-07-01T19:48:37.939Z,21.77
2017-07-01T19:51:05.416Z,19.40
2017-07-01T19:53:32.883Z,20.90
2017-07-01T19:56:00.331Z,15.20
2017-07-01T19:58:27.915Z,16.63
2017-07-01T20:00:56.221Z,17.23
2017-07-01T20:03:23.687Z,15.20
2017-07-01T20:05:51.165Z,17.73
2017-07-01T20:08:18.642Z,20.67
2017-07-01T20:10:46.122Z,15.10
2017-07-01T20:13:13.674Z,17.73
2017-07-01T20:15:41.899Z,16.83
2017-07-01T20:18:09.353Z,18.17
2017-07-01T20:20:36.833Z,15.30
2017-07-01T20:23:04.338Z,13.40
2017-07-01T20:25:31.794Z,21.60
2017-07-01T20:28:00.754Z,21.93
2017-07-01T20:30:29.021Z,21.73
2017-07-01T20:32:56.557Z,23.57
2017-07-01T20:35:24.045Z,13.70
2017-07-01T20:37:52.285Z,13.43
2017-07-01T20:40:19.819Z,16.93
2017-07-01T20:42:47.434Z,15.17
2017-07-01T20:45:14.895Z,13.10
2017-07-01T20:47:43.194Z,12.43
2017-07-01T20:50:11.483Z,20.37
2017-07-01T20:52:38.962Z,17.30
2017-07-01T20:55:06.474Z,18.17
2017-07-01T20:57:34.742Z,16.13
2017-07-01T21:00:02.966Z,17.17
2017-07-01T21:02:30.419Z,9.03
2017-07-01T21:04:57.929Z,16.93
2017-07-01T21:07:25.386Z,18.00
2017-07-01T21:09:53.654Z,16.40
2017-07-01T21:12:21.891Z,17.40
2017-07-01T21:14:49.363Z,13.40
2017-07-01T21:17:16.838Z,14.27
2017-07-01T21:19:44.399Z,14.50
2017-07-01T21:22:11.859Z,15.33
2017-07-01T21:24:39.307Z,22.13
2017-07-01T21:27:06.786Z,18.00
2017-07-01T21:29:35.009Z,18.80
2017-07-01T21:32:02.479Z,24.97
2017-07-01T21:34:30.063Z,20.00
2017-07-01T21:36:57.522Z,17.23
2017-07-01T21:39:24.981Z,14.80
2017-07-01T21:41:53.253Z,18.07
2017-07-01T21:44:20.838Z,24.17
2017-07-01T21:46:48.278Z,19.63
2017-07-01T21:49:16.542Z,19.43
2017-07-01T21:51:44.826Z,19.37
2017-07-01T21:54:13.191Z,18.63
2017-07-01T21:56:40.752Z,20.10
2017-07-01T21:59:08.208Z,22.90
2017-07-01T22:01:35.734Z,17.43
2017-07-01T22:04:03.245Z,22.73
2017-07-01T22:06:31.491Z,21.23
2017-07-01T22:08:58.992Z,14.77
2017-07-01T22:11:26.494Z,21.90
2017-07-01T22:13:53.949Z,18.20
2017-07-01T22:16:21.422Z,19.60
2017-07-01T22:18:48.921Z,20.60
2017-07-01T22:21:16.456Z,17.67
2017-07-01T22:23:44.719Z,21.93
2017-07-01T22:26:12.328Z,13.40
2017-07-01T22:28:39.831Z,15.67
2017-07-01T22:31:07.343Z,21.93
2017-07-01T22:33:34.817Z,16.73
2017-07-01T22:36:02.275Z,22.07
2017-07-01T22:38:29.906Z,14.50
2017-07-01T22:40:57.382Z,24.50
2017-07-01T22:43:24.846Z,19.87
2017-07-01T22:45:52.326Z,15.60
2017-07-01T22:48:20.705Z,15.50
2017-07-01T22:50:48.190Z,11.60
2017-07-01T22:53:16.442Z,17.40
2017-07-01T22:55:44.062Z,13.33
2017-07-01T22:58:11.514Z,22.50
2017-07-01T23:00:38.980Z,15.50
2017-07-01T23:03:06.443Z,14.90
2017-07-01T23:05:33.983Z,20.33
2017-07-01T23:08:01.496Z,20.83
2017-07-01T23:10:29.746Z,14.20
2017-07-01T23:12:57.239Z,18.47
2017-07-01T23:15:25.494Z,20.47
2017-07-01T23:17:53.064Z,19.90
2017-07-01T23:20:21.288Z,13.53
2017-07-01T23:22:48.815Z,17.47
2017-07-01T23:25:17.046Z,18.60
2017-07-01T23:27:44.503Z,17.03
2017-07-01T23:30:11.965Z,11.70
2017-07-01T23:32:39.445Z,15.80
2017-07-01T23:35:07.698Z,12.97
2017-07-01T23:37:35.167Z,15.43
2017-07-01T23:40:02.629Z,12.77
2017-07-01T23:42:30.855Z,15.97
2017-07-01T23:44:58.309Z,17.40
2017-07-01T23:47:25.793Z,14.70
2017-07-01T23:49:53.361Z,14.73
2017-07-01T23:52:20.814Z,14.37
2017-07-01T23:54:48.400Z,16.77
2017-07-01T23:57:16.627Z,15.97
2017-07-01T23:59:44.109Z,16.70
